M/V Jesse B Gunstream Jr — WDB6583 — position and weather

sailwx.info

Track history (hours):
 
Tides and Currents Weather Stations Pressure Air Temp Water Temp Dewpoint Dewpoint Depression Visibility Wind Speed Wind Dir Waves Ship Positions

M/V Jesse B Gunstream Jr

Owner: Higman Barge Lines, Inc., ORANGE, TX. More information available from US FCC via Universal Licensing System and Coast Guard Vessel Documentation Center.

Last reported at 2017-Nov-23 18:45 UTC. Time now 2017-Nov-24 03:38 UTC.
Position N 29°34' W 090°33'.

; draft 3.2 m.

Type: Ship (hazmat cat A). MMSI: 366926990.

Date/timePositionNaut miles runAvg speedWind from/ knotsBaromVisibWave heightAir tempDewpointWater temp
2017-Nov-23 18:45N 29°34' W 090°33'2 6.9
2017-Nov-23 18:29N 29°35' W 090°35'3 6.3
2017-Nov-23 18:00N 29°35' W 090°38'3 6.4
2017-Nov-23 17:30N 29°37' W 090°42'3 5.5
2017-Nov-23 17:00N 29°34' W 090°43'1 2.6
2017-Nov-23 16:30N 29°34' W 090°44'0 0.0
2017-Nov-23 16:00N 29°34' W 090°44'1 1.2
2017-Nov-23 15:31N 29°33' W 090°45'3 6.1
2017-Nov-23 15:00N 29°32' W 090°48'4 6.8
2017-Nov-23 14:24N 29°32' W 090°53'64 4.9
2017-Nov-23 01:19N 29°48' W 092°04'1 3.4
2017-Nov-23 00:54N 29°48' W 092°06'1 3.2
2017-Nov-23 00:29N 29°47' W 092°07'3 6.1
2017-Nov-23 00:00N 29°47' W 092°10'3 6.0
2017-Nov-22 23:30N 29°48' W 092°14'3 6.4
2017-Nov-22 23:01N 29°49' W 092°17'3 6.2
2017-Nov-22 22:30N 29°51' W 092°20'  
2017-Nov-20 00:30N 30°05' W 093°20'2 3.8
2017-Nov-20 00:00N 30°06' W 093°19'0 0.7
2017-Nov-19 23:30N 30°06' W 093°19'2 4.6
2017-Nov-19 23:00N 30°05' W 093°17'1 1.6
2017-Nov-19 22:30N 30°05' W 093°17'1 1.2
2017-Nov-19 22:00N 30°05' W 093°18'3 5.2
2017-Nov-19 21:31N 30°04' W 093°21'1 1.2
2017-Nov-19 21:00N 30°05' W 093°20'0 0.0
2017-Nov-19 20:30N 30°05' W 093°20'0 0.0
2017-Nov-19 20:00N 30°05' W 093°20'0 0.0
2017-Nov-19 19:30N 30°05' W 093°20'0 0.0
2017-Nov-19 19:00N 30°05' W 093°20'2 3.8
2017-Nov-19 18:30N 30°06' W 093°18'2 3.7
2017-Nov-19 18:01N 30°05' W 093°17'0 0.0
2017-Nov-19 17:30N 30°05' W 093°17'1 2.9
2017-Nov-19 17:00N 30°03' W 093°16'3 6.5
2017-Nov-19 16:30N 30°01' W 093°14'2 4.6
2017-Nov-19 16:01N 29°59' W 093°12'2 4.7
2017-Nov-19 15:30N 30°01' W 093°14'3 6.0
2017-Nov-19 15:01N 30°03' W 093°16'3 6.1
2017-Nov-19 14:31N 30°05' W 093°18'2 4.4
2017-Nov-19 14:00N 30°05' W 093°20'0 0.0
2017-Nov-19 13:31N 30°05' W 093°20'0 0.0
2017-Nov-19 13:01N 30°05' W 093°20'0 0.0
2017-Nov-19 12:30N 30°05' W 093°20'0 0.0
2017-Nov-19 12:01N 30°05' W 093°20'0 0.0
2017-Nov-19 11:31N 30°05' W 093°20'0 0.0
2017-Nov-19 11:01N 30°05' W 093°20'0 0.0
2017-Nov-19 10:30N 30°05' W 093°20'0 0.0
2017-Nov-19 10:01N 30°05' W 093°20'0 0.0
2017-Nov-19 09:30N 30°05' W 093°20'0 0.0
2017-Nov-19 09:00N 30°05' W 093°20'0 0.0
2017-Nov-19 08:30N 30°05' W 093°20'0 0.0
2017-Nov-19 08:00N 30°05' W 093°20'0 0.0
2017-Nov-19 07:30N 30°05' W 093°20'0 0.0
2017-Nov-19 07:01N 30°05' W 093°20'0 0.0
2017-Nov-19 06:30N 30°05' W 093°20'0 0.0
2017-Nov-19 06:00N 30°05' W 093°20'0 0.0
2017-Nov-19 05:30N 30°05' W 093°20'0 0.0
2017-Nov-19 05:00N 30°05' W 093°20'0 0.0
2017-Nov-19 04:30N 30°05' W 093°20'0 0.2
2017-Nov-19 04:00N 30°05' W 093°20'1 1.0
2017-Nov-19 03:30N 30°05' W 093°20'0 0.0
2017-Nov-19 03:01N 30°05' W 093°20'0 0.0
2017-Nov-19 02:30N 30°05' W 093°20'0 0.0
2017-Nov-19 02:00N 30°05' W 093°20'2 3.5
2017-Nov-19 01:30N 30°07' W 093°20'4 7.3
2017-Nov-19 01:00N 30°10' W 093°19'3 5.0
2017-Nov-19 00:30N 30°13' W 093°18'0 0.4
2017-Nov-19 00:00N 30°13' W 093°18'0 0.0
2017-Nov-18 23:30N 30°13' W 093°18'1 1.7
2017-Nov-18 23:00N 30°12' W 093°18'0 0.8
2017-Nov-18 22:30N 30°12' W 093°17'0 0.0
2017-Nov-18 22:00N 30°12' W 093°17'0 0.0
2017-Nov-18 21:30N 30°12' W 093°17'0 0.0
2017-Nov-18 21:00N 30°12' W 093°17'0 0.0
2017-Nov-18 20:30N 30°12' W 093°17'0 0.0
2017-Nov-18 20:00N 30°12' W 093°17'0 0.0
2017-Nov-18 19:30N 30°12' W 093°17'0 0.0
2017-Nov-18 19:00N 30°12' W 093°17'0 0.2
2017-Nov-18 18:30N 30°12' W 093°17'0 0.9
2017-Nov-18 18:01N 30°12' W 093°18'2 4.7
2017-Nov-18 17:31N 30°10' W 093°19'3 5.2
2017-Nov-18 17:00N 30°07' W 093°20'3 5.5
2017-Nov-18 16:30N 30°04' W 093°20'3 5.8
2017-Nov-18 16:00N 30°01' W 093°20'3 5.6
2017-Nov-18 15:31N 29°59' W 093°20'3 5.8
2017-Nov-18 15:00N 29°56' W 093°20'3 5.5
2017-Nov-18 14:30N 29°53' W 093°21'2 1.4
2017-Nov-18 12:52N 29°51' W 093°21'6 2.3
2017-Nov-18 10:26N 29°56' W 093°20'3 6.7
2017-Nov-18 10:00N 29°59' W 093°20'3 6.8
2017-Nov-18 09:31N 30°02' W 093°20'2 4.5
2017-Nov-18 09:01N 30°05' W 093°20'0 0.1
2017-Nov-18 08:31N 30°05' W 093°20'0 0.1
2017-Nov-18 08:00N 30°05' W 093°20'0 0.4
2017-Nov-18 07:31N 30°04' W 093°20'0 0.0
2017-Nov-18 07:01N 30°04' W 093°20'0 0.0
2017-Nov-18 06:30N 30°04' W 093°20'0 0.0
2017-Nov-18 06:00N 30°04' W 093°20'0 0.0
2017-Nov-18 05:31N 30°04' W 093°20'0 0.1
2017-Nov-18 05:01N 30°04' W 093°20'0 0.1
2017-Nov-18 04:30N 30°04' W 093°20'0 0.0
2017-Nov-18 04:00N 30°04' W 093°20'0 0.0
2017-Nov-18 03:31N 30°04' W 093°20'0 0.0
2017-Nov-18 03:00N 30°04' W 093°20'0 0.0
2017-Nov-18 02:30N 30°04' W 093°20'0 0.0
2017-Nov-18 02:01N 30°04' W 093°20'0 0.0
2017-Nov-18 01:30N 30°04' W 093°20'0 0.0
2017-Nov-18 01:00N 30°04' W 093°20'0 0.0
2017-Nov-18 00:31N 30°04' W 093°20'0 0.0
2017-Nov-18 00:01N 30°04' W 093°20'0 0.0
2017-Nov-17 23:30N 30°04' W 093°20'0 0.0
2017-Nov-17 23:01N 30°04' W 093°20'0 0.0
2017-Nov-17 22:31N 30°04' W 093°20'0 0.0
2017-Nov-17 22:00N 30°04' W 093°20'0 0.0
2017-Nov-17 21:30N 30°04' W 093°20'1 1.2
2017-Nov-17 21:00N 30°05' W 093°20'0 0.4
2017-Nov-17 20:30N 30°05' W 093°20'0 0.2
2017-Nov-17 20:01N 30°05' W 093°20'0 0.7
2017-Nov-17 19:30N 30°05' W 093°20'0 0.8
2017-Nov-17 19:00N 30°04' W 093°20'0 0.0
2017-Nov-17 18:31N 30°04' W 093°20'0 0.0
2017-Nov-17 18:01N 30°04' W 093°20'0 0.0
2017-Nov-17 17:31N 30°04' W 093°20'0 0.0
2017-Nov-17 17:00N 30°04' W 093°20'0 0.2
2017-Nov-17 16:30N 30°05' W 093°20'0 0.3
2017-Nov-17 16:01N 30°05' W 093°20'1 2.7
2017-Nov-17 15:30N 30°04' W 093°21'0 0.0
2017-Nov-17 15:00N 30°04' W 093°21'0 0.1
2017-Nov-17 14:30N 30°04' W 093°21'0 0.7
2017-Nov-17 14:01N 30°04' W 093°22'0 0.8
2017-Nov-17 13:30N 30°04' W 093°21'0 0.1
2017-Nov-17 13:01N 30°04' W 093°21'1 2.4
2017-Nov-17 12:31N 30°05' W 093°20'0 0.0
2017-Nov-17 12:01N 30°05' W 093°20'0 0.0
2017-Nov-17 11:31N 30°05' W 093°20'0 0.0
2017-Nov-17 11:00N 30°05' W 093°20'1 2.6
2017-Nov-17 10:30N 30°04' W 093°21'0 0.1
2017-Nov-17 10:00N 30°04' W 093°21'0 0.7
2017-Nov-17 09:31N 30°04' W 093°21'2 4.3
2017-Nov-17 09:00N 30°05' W 093°20'3 5.1
2017-Nov-17 08:30N 30°08' W 093°20'2 5.0
2017-Nov-17 08:00N 30°10' W 093°19'2 4.4
2017-Nov-17 07:30N 30°12' W 093°17'2 4.1
2017-Nov-17 07:00N 30°13' W 093°15'0 0.1
2017-Nov-17 06:30N 30°13' W 093°15'0 0.0
2017-Nov-17 06:01N 30°13' W 093°15'0 0.0
2017-Nov-17 05:31N 30°13' W 093°15'0 0.0
2017-Nov-17 05:00N 30°13' W 093°15'0 0.0
2017-Nov-17 04:30N 30°13' W 093°15'0 0.2
2017-Nov-17 04:00N 30°13' W 093°15'0 0.0
2017-Nov-17 03:31N 30°13' W 093°15'0 0.0
2017-Nov-17 03:00N 30°13' W 093°15'0 0.0
2017-Nov-17 02:28N 30°13' W 093°15'0 0.0
2017-Nov-17 02:01N 30°13' W 093°15'0 0.0
2017-Nov-17 01:30N 30°13' W 093°15'0 0.3
2017-Nov-17 01:01N 30°13' W 093°15'1 2.2
2017-Nov-17 00:30N 30°13' W 093°17'0 0.2
2017-Nov-16 23:57N 30°13' W 093°17'0 0.0
2017-Nov-16 23:30N 30°13' W 093°17'0 0.2
2017-Nov-16 23:01N 30°13' W 093°17'1 1.1
2017-Nov-16 22:29N 30°13' W 093°17'3 6.5
2017-Nov-16 22:00N 30°10' W 093°19'4 7.4
2017-Nov-16 21:30N 30°07' W 093°20'2 3.9
2017-Nov-16 21:01N 30°05' W 093°20'0 0.7
2017-Nov-16 20:30N 30°05' W 093°20'0 0.0
2017-Nov-16 20:00N 30°05' W 093°20'0 0.0
2017-Nov-16 19:30N 30°05' W 093°20'0 0.0
2017-Nov-16 19:00N 30°05' W 093°20'0 0.0
2017-Nov-16 18:31N 30°05' W 093°20'0 0.1
2017-Nov-16 18:00N 30°05' W 093°20'0 0.1
2017-Nov-16 17:31N 30°05' W 093°20'0 0.7
2017-Nov-16 17:00N 30°05' W 093°20'0 0.0
2017-Nov-16 16:30N 30°05' W 093°20'0 0.6
2017-Nov-16 16:01N 30°05' W 093°20'0 0.0
2017-Nov-16 15:31N 30°05' W 093°20'0 0.0
2017-Nov-16 15:00N 30°05' W 093°20'0 0.0
2017-Nov-16 14:30N 30°05' W 093°20'0 0.0
2017-Nov-16 14:00N 30°05' W 093°20'0 0.0
2017-Nov-16 13:31N 30°05' W 093°20'0 0.6
2017-Nov-16 13:00N 30°05' W 093°20'0 0.0
2017-Nov-16 12:30N 30°05' W 093°20'0 0.0
2017-Nov-16 12:01N 30°05' W 093°20'0 0.0
2017-Nov-16 11:30N 30°05' W 093°20'0 0.0
2017-Nov-16 11:00N 30°05' W 093°20'0 0.0
2017-Nov-16 10:30N 30°05' W 093°20'0 0.0
2017-Nov-16 10:01N 30°05' W 093°20'0 0.0
2017-Nov-16 09:31N 30°05' W 093°20'0 0.0
2017-Nov-16 09:00N 30°05' W 093°20'0 0.0
2017-Nov-16 08:31N 30°05' W 093°20'0 0.0
2017-Nov-16 08:00N 30°05' W 093°20'0 0.0
2017-Nov-16 07:30N 30°05' W 093°20'0 0.0
2017-Nov-16 07:00N 30°05' W 093°20'0 0.0
2017-Nov-16 06:30N 30°05' W 093°20'0 0.0
2017-Nov-16 06:01N 30°05' W 093°20'0 0.0
2017-Nov-16 05:30N 30°05' W 093°20'0 0.0
2017-Nov-16 05:01N 30°05' W 093°20'0 0.0
2017-Nov-16 04:31N 30°05' W 093°20'0 0.0
2017-Nov-16 04:01N 30°05' W 093°20'0 0.0
2017-Nov-16 03:30N 30°05' W 093°20'1 2.7
2017-Nov-16 03:01N 30°06' W 093°19'2 3.1
2017-Nov-16 02:31N 30°05' W 093°20'2 3.0
2017-Nov-16 02:01N 30°06' W 093°19'0 0.1
2017-Nov-16 01:31N 30°06' W 093°19'2 4.0
2017-Nov-16 01:00N 30°05' W 093°20'1 2.5
2017-Nov-16 00:30N 30°04' W 093°21'0 0.3
2017-Nov-16 00:01N 30°04' W 093°21'0 0.0
2017-Nov-15 23:31N 30°04' W 093°21'0 0.5
2017-Nov-15 23:00N 30°04' W 093°22'0 0.6
2017-Nov-15 22:31N 30°04' W 093°21'0 0.0
2017-Nov-15 22:01N 30°04' W 093°21'0 0.0
2017-Nov-15 21:31N 30°04' W 093°21'0 0.0
2017-Nov-15 21:01N 30°04' W 093°21'1 1.2
2017-Nov-15 20:30N 30°04' W 093°21'1 2.6
2017-Nov-15 20:01N 30°05' W 093°20'0 0.0
2017-Nov-15 19:31N 30°05' W 093°20'0 0.0
2017-Nov-15 19:00N 30°05' W 093°20'0 0.0
2017-Nov-15 18:31N 30°05' W 093°20'0 0.0
2017-Nov-15 18:01N 30°05' W 093°20'0 0.0
2017-Nov-15 17:30N 30°05' W 093°20'0 0.0
2017-Nov-15 17:01N 30°05' W 093°20'0 0.0
2017-Nov-15 16:31N 30°05' W 093°20'0 0.0
2017-Nov-15 16:01N 30°05' W 093°20'2 3.6
2017-Nov-15 15:30N 30°05' W 093°18'1 2.1
2017-Nov-15 15:00N 30°05' W 093°17'1 2.2
2017-Nov-15 14:30N 30°05' W 093°18'1 1.5
2017-Nov-15 14:01N 30°06' W 093°18'0 0.0
2017-Nov-15 13:30N 30°06' W 093°18'1 1.2
2017-Nov-15 13:01N 30°06' W 093°19'2 3.1
2017-Nov-15 12:30N 30°05' W 093°20'0 0.0
2017-Nov-15 12:01N 30°05' W 093°20'0 0.6
2017-Nov-15 11:31N 30°05' W 093°20'0 0.7
2017-Nov-15 11:01N 30°04' W 093°20'0 0.0
2017-Nov-15 10:31N 30°04' W 093°20'0 0.0
2017-Nov-15 10:00N 30°04' W 093°20'0 0.0
2017-Nov-15 09:31N 30°04' W 093°20'0 0.0
2017-Nov-15 09:01N 30°04' W 093°20'0 0.0
2017-Nov-15 08:30N 30°04' W 093°20'0 0.0
2017-Nov-15 08:00N 30°04' W 093°20'0 0.0
2017-Nov-15 07:31N 30°04' W 093°20'0 0.1
2017-Nov-15 07:00N 30°04' W 093°20'0 0.0
2017-Nov-15 06:30N 30°04' W 093°20'0 0.0
2017-Nov-15 06:01N 30°04' W 093°20'0 0.0
2017-Nov-15 05:30N 30°04' W 093°20'0 0.0
2017-Nov-15 05:01N 30°04' W 093°20'0 0.0
2017-Nov-15 04:30N 30°04' W 093°20'0 0.0
2017-Nov-15 04:00N 30°04' W 093°20'0 0.0
2017-Nov-15 03:30N 30°04' W 093°20'0 0.0
2017-Nov-15 03:00N 30°04' W 093°20'0 0.0
2017-Nov-15 02:31N 30°04' W 093°20'0 0.0
2017-Nov-15 02:00N 30°04' W 093°20'0 0.0
2017-Nov-15 01:31N 30°04' W 093°20'0 0.0
2017-Nov-15 01:00N 30°04' W 093°20'0 0.0
2017-Nov-15 00:30N 30°04' W 093°20'0 0.0
2017-Nov-15 00:01N 30°04' W 093°20'1 1.4
2017-Nov-14 23:31N 30°05' W 093°20'3 6.9
2017-Nov-14 23:00N 30°08' W 093°20'3 6.4
2017-Nov-14 22:30N 30°11' W 093°18'0 0.2
2017-Nov-14 22:00N 30°11' W 093°18'2 4.2
2017-Nov-14 21:31N 30°10' W 093°19'3 6.1
2017-Nov-14 21:01N 30°07' W 093°20'3 5.1
2017-Nov-14 20:30N 30°04' W 093°21'0 0.0
2017-Nov-14 20:00N 30°04' W 093°21'0 0.7
2017-Nov-14 19:30N 30°04' W 093°20'0 0.0
2017-Nov-14 19:00N 30°04' W 093°20'0 0.0
2017-Nov-14 18:30N 30°04' W 093°20'0 0.0
2017-Nov-14 18:01N 30°04' W 093°20'0 0.0
2017-Nov-14 17:31N 30°04' W 093°20'1 2.2
2017-Nov-14 17:01N 30°04' W 093°21'1 2.8
2017-Nov-14 16:30N 30°05' W 093°20'1 1.2
2017-Nov-14 16:00N 30°05' W 093°20'0 0.0
2017-Nov-14 15:31N 30°05' W 093°20'0 0.0
2017-Nov-14 15:00N 30°05' W 093°20'0 0.0
2017-Nov-14 14:30N 30°05' W 093°20'0 0.0
2017-Nov-14 13:59N 30°05' W 093°20'0 0.0
2017-Nov-14 13:30N 30°05' W 093°20'0 0.0
2017-Nov-14 13:00N 30°05' W 093°20'0 0.6
2017-Nov-14 12:31N 30°05' W 093°20'0 0.0
2017-Nov-14 11:13N 30°05' W 093°20'0 0.0
2017-Nov-14 10:59N 30°05' W 093°20'0 0.0
2017-Nov-14 10:29N 30°05' W 093°20'0 0.0
2017-Nov-14 01:42N 30°05' W 093°20'0 0.0
2017-Nov-14 01:29N 30°05' W 093°20'0 0.0
2017-Nov-14 00:57N 30°05' W 093°20'0 1.0
2017-Nov-14 00:29N 30°05' W 093°20'0 0.1
2017-Nov-13 22:49N 30°05' W 093°20'0 0.2
2017-Nov-13 22:29N 30°05' W 093°20'1 2.0
2017-Nov-13 21:59N 30°04' W 093°20'  
Track history (hours):
 
Tides and Currents Weather Stations Pressure Air Temp Water Temp Dewpoint Dewpoint Depression Visibility Wind Speed Wind Dir Waves Ship Positions

M/V Jesse B Gunstream Jr

Owner: Higman Barge Lines, Inc., ORANGE, TX. More information available from US FCC via Universal Licensing System and Coast Guard Vessel Documentation Center.

Last reported at 2017-Nov-23 18:45 UTC. Time now 2017-Nov-24 03:38 UTC.
Position N 29°34' W 090°33'.

; draft 3.2 m.

Type: Ship (hazmat cat A). MMSI: 366926990.

Date/timePositionNaut miles runAvg speedWind from/ knotsBaromVisibWave heightAir tempDewpointWater temp
2017-Nov-23 18:45N 29°34' W 090°33'2 6.9
2017-Nov-23 18:29N 29°35' W 090°35'3 6.3
2017-Nov-23 18:00N 29°35' W 090°38'3 6.4
2017-Nov-23 17:30N 29°37' W 090°42'3 5.5
2017-Nov-23 17:00N 29°34' W 090°43'1 2.6
2017-Nov-23 16:30N 29°34' W 090°44'0 0.0
2017-Nov-23 16:00N 29°34' W 090°44'1 1.2
2017-Nov-23 15:31N 29°33' W 090°45'3 6.1
2017-Nov-23 15:00N 29°32' W 090°48'4 6.8
2017-Nov-23 14:24N 29°32' W 090°53'64 4.9
2017-Nov-23 01:19N 29°48' W 092°04'1 3.4
2017-Nov-23 00:54N 29°48' W 092°06'1 3.2
2017-Nov-23 00:29N 29°47' W 092°07'3 6.1
2017-Nov-23 00:00N 29°47' W 092°10'3 6.0
2017-Nov-22 23:30N 29°48' W 092°14'3 6.4
2017-Nov-22 23:01N 29°49' W 092°17'3 6.2
2017-Nov-22 22:30N 29°51' W 092°20'  
2017-Nov-20 00:30N 30°05' W 093°20'2 3.8
2017-Nov-20 00:00N 30°06' W 093°19'0 0.7
2017-Nov-19 23:30N 30°06' W 093°19'2 4.6
2017-Nov-19 23:00N 30°05' W 093°17'1 1.6
2017-Nov-19 22:30N 30°05' W 093°17'1 1.2
2017-Nov-19 22:00N 30°05' W 093°18'3 5.2
2017-Nov-19 21:31N 30°04' W 093°21'1 1.2
2017-Nov-19 21:00N 30°05' W 093°20'0 0.0
2017-Nov-19 20:30N 30°05' W 093°20'0 0.0
2017-Nov-19 20:00N 30°05' W 093°20'0 0.0
2017-Nov-19 19:30N 30°05' W 093°20'0 0.0
2017-Nov-19 19:00N 30°05' W 093°20'2 3.8
2017-Nov-19 18:30N 30°06' W 093°18'2 3.7
2017-Nov-19 18:01N 30°05' W 093°17'0 0.0
2017-Nov-19 17:30N 30°05' W 093°17'1 2.9
2017-Nov-19 17:00N 30°03' W 093°16'3 6.5
2017-Nov-19 16:30N 30°01' W 093°14'2 4.6
2017-Nov-19 16:01N 29°59' W 093°12'2 4.7
2017-Nov-19 15:30N 30°01' W 093°14'3 6.0
2017-Nov-19 15:01N 30°03' W 093°16'3 6.1
2017-Nov-19 14:31N 30°05' W 093°18'2 4.4
2017-Nov-19 14:00N 30°05' W 093°20'0 0.0
2017-Nov-19 13:31N 30°05' W 093°20'0 0.0
2017-Nov-19 13:01N 30°05' W 093°20'0 0.0
2017-Nov-19 12:30N 30°05' W 093°20'0 0.0
2017-Nov-19 12:01N 30°05' W 093°20'0 0.0
2017-Nov-19 11:31N 30°05' W 093°20'0 0.0
2017-Nov-19 11:01N 30°05' W 093°20'0 0.0
2017-Nov-19 10:30N 30°05' W 093°20'0 0.0
2017-Nov-19 10:01N 30°05' W 093°20'0 0.0
2017-Nov-19 09:30N 30°05' W 093°20'0 0.0
2017-Nov-19 09:00N 30°05' W 093°20'0 0.0
2017-Nov-19 08:30N 30°05' W 093°20'0 0.0
2017-Nov-19 08:00N 30°05' W 093°20'0 0.0
2017-Nov-19 07:30N 30°05' W 093°20'0 0.0
2017-Nov-19 07:01N 30°05' W 093°20'0 0.0
2017-Nov-19 06:30N 30°05' W 093°20'0 0.0
2017-Nov-19 06:00N 30°05' W 093°20'0 0.0
2017-Nov-19 05:30N 30°05' W 093°20'0 0.0
2017-Nov-19 05:00N 30°05' W 093°20'0 0.0
2017-Nov-19 04:30N 30°05' W 093°20'0 0.2
2017-Nov-19 04:00N 30°05' W 093°20'1 1.0
2017-Nov-19 03:30N 30°05' W 093°20'0 0.0
2017-Nov-19 03:01N 30°05' W 093°20'0 0.0
2017-Nov-19 02:30N 30°05' W 093°20'0 0.0
2017-Nov-19 02:00N 30°05' W 093°20'2 3.5
2017-Nov-19 01:30N 30°07' W 093°20'4 7.3
2017-Nov-19 01:00N 30°10' W 093°19'3 5.0
2017-Nov-19 00:30N 30°13' W 093°18'0 0.4
2017-Nov-19 00:00N 30°13' W 093°18'0 0.0
2017-Nov-18 23:30N 30°13' W 093°18'1 1.7
2017-Nov-18 23:00N 30°12' W 093°18'0 0.8
2017-Nov-18 22:30N 30°12' W 093°17'0 0.0
2017-Nov-18 22:00N 30°12' W 093°17'0 0.0
2017-Nov-18 21:30N 30°12' W 093°17'0 0.0
2017-Nov-18 21:00N 30°12' W 093°17'0 0.0
2017-Nov-18 20:30N 30°12' W 093°17'0 0.0
2017-Nov-18 20:00N 30°12' W 093°17'0 0.0
2017-Nov-18 19:30N 30°12' W 093°17'0 0.0
2017-Nov-18 19:00N 30°12' W 093°17'0 0.2
2017-Nov-18 18:30N 30°12' W 093°17'0 0.9
2017-Nov-18 18:01N 30°12' W 093°18'2 4.7
2017-Nov-18 17:31N 30°10' W 093°19'3 5.2
2017-Nov-18 17:00N 30°07' W 093°20'3 5.5
2017-Nov-18 16:30N 30°04' W 093°20'3 5.8
2017-Nov-18 16:00N 30°01' W 093°20'3 5.6
2017-Nov-18 15:31N 29°59' W 093°20'3 5.8
2017-Nov-18 15:00N 29°56' W 093°20'3 5.5
2017-Nov-18 14:30N 29°53' W 093°21'2 1.4
2017-Nov-18 12:52N 29°51' W 093°21'6 2.3
2017-Nov-18 10:26N 29°56' W 093°20'3 6.7
2017-Nov-18 10:00N 29°59' W 093°20'3 6.8
2017-Nov-18 09:31N 30°02' W 093°20'2 4.5
2017-Nov-18 09:01N 30°05' W 093°20'0 0.1
2017-Nov-18 08:31N 30°05' W 093°20'0 0.1
2017-Nov-18 08:00N 30°05' W 093°20'0 0.4
2017-Nov-18 07:31N 30°04' W 093°20'0 0.0
2017-Nov-18 07:01N 30°04' W 093°20'0 0.0
2017-Nov-18 06:30N 30°04' W 093°20'0 0.0
2017-Nov-18 06:00N 30°04' W 093°20'0 0.0
2017-Nov-18 05:31N 30°04' W 093°20'0 0.1
2017-Nov-18 05:01N 30°04' W 093°20'0 0.1
2017-Nov-18 04:30N 30°04' W 093°20'0 0.0
2017-Nov-18 04:00N 30°04' W 093°20'0 0.0
2017-Nov-18 03:31N 30°04' W 093°20'0 0.0
2017-Nov-18 03:00N 30°04' W 093°20'0 0.0
2017-Nov-18 02:30N 30°04' W 093°20'0 0.0
2017-Nov-18 02:01N 30°04' W 093°20'0 0.0
2017-Nov-18 01:30N 30°04' W 093°20'0 0.0
2017-Nov-18 01:00N 30°04' W 093°20'0 0.0
2017-Nov-18 00:31N 30°04' W 093°20'0 0.0
2017-Nov-18 00:01N 30°04' W 093°20'0 0.0
2017-Nov-17 23:30N 30°04' W 093°20'0 0.0
2017-Nov-17 23:01N 30°04' W 093°20'0 0.0
2017-Nov-17 22:31N 30°04' W 093°20'0 0.0
2017-Nov-17 22:00N 30°04' W 093°20'0 0.0
2017-Nov-17 21:30N 30°04' W 093°20'1 1.2
2017-Nov-17 21:00N 30°05' W 093°20'0 0.4
2017-Nov-17 20:30N 30°05' W 093°20'0 0.2
2017-Nov-17 20:01N 30°05' W 093°20'0 0.7
2017-Nov-17 19:30N 30°05' W 093°20'0 0.8
2017-Nov-17 19:00N 30°04' W 093°20'0 0.0
2017-Nov-17 18:31N 30°04' W 093°20'0 0.0
2017-Nov-17 18:01N 30°04' W 093°20'0 0.0
2017-Nov-17 17:31N 30°04' W 093°20'0 0.0
2017-Nov-17 17:00N 30°04' W 093°20'0 0.2
2017-Nov-17 16:30N 30°05' W 093°20'0 0.3
2017-Nov-17 16:01N 30°05' W 093°20'1 2.7
2017-Nov-17 15:30N 30°04' W 093°21'0 0.0
2017-Nov-17 15:00N 30°04' W 093°21'0 0.1
2017-Nov-17 14:30N 30°04' W 093°21'0 0.7
2017-Nov-17 14:01N 30°04' W 093°22'0 0.8
2017-Nov-17 13:30N 30°04' W 093°21'0 0.1
2017-Nov-17 13:01N 30°04' W 093°21'1 2.4
2017-Nov-17 12:31N 30°05' W 093°20'0 0.0
2017-Nov-17 12:01N 30°05' W 093°20'0 0.0
2017-Nov-17 11:31N 30°05' W 093°20'0 0.0
2017-Nov-17 11:00N 30°05' W 093°20'1 2.6
2017-Nov-17 10:30N 30°04' W 093°21'0 0.1
2017-Nov-17 10:00N 30°04' W 093°21'0 0.7
2017-Nov-17 09:31N 30°04' W 093°21'2 4.3
2017-Nov-17 09:00N 30°05' W 093°20'3 5.1
2017-Nov-17 08:30N 30°08' W 093°20'2 5.0
2017-Nov-17 08:00N 30°10' W 093°19'2 4.4
2017-Nov-17 07:30N 30°12' W 093°17'2 4.1
2017-Nov-17 07:00N 30°13' W 093°15'0 0.1
2017-Nov-17 06:30N 30°13' W 093°15'0 0.0
2017-Nov-17 06:01N 30°13' W 093°15'0 0.0
2017-Nov-17 05:31N 30°13' W 093°15'0 0.0
2017-Nov-17 05:00N 30°13' W 093°15'0 0.0
2017-Nov-17 04:30N 30°13' W 093°15'0 0.2
2017-Nov-17 04:00N 30°13' W 093°15'0 0.0
2017-Nov-17 03:31N 30°13' W 093°15'0 0.0
2017-Nov-17 03:00N 30°13' W 093°15'0 0.0
2017-Nov-17 02:28N 30°13' W 093°15'0 0.0
2017-Nov-17 02:01N 30°13' W 093°15'0 0.0
2017-Nov-17 01:30N 30°13' W 093°15'0 0.3
2017-Nov-17 01:01N 30°13' W 093°15'1 2.2
2017-Nov-17 00:30N 30°13' W 093°17'0 0.2
2017-Nov-16 23:57N 30°13' W 093°17'0 0.0
2017-Nov-16 23:30N 30°13' W 093°17'0 0.2
2017-Nov-16 23:01N 30°13' W 093°17'1 1.1
2017-Nov-16 22:29N 30°13' W 093°17'3 6.5
2017-Nov-16 22:00N 30°10' W 093°19'4 7.4
2017-Nov-16 21:30N 30°07' W 093°20'2 3.9
2017-Nov-16 21:01N 30°05' W 093°20'0 0.7
2017-Nov-16 20:30N 30°05' W 093°20'0 0.0
2017-Nov-16 20:00N 30°05' W 093°20'0 0.0
2017-Nov-16 19:30N 30°05' W 093°20'0 0.0
2017-Nov-16 19:00N 30°05' W 093°20'0 0.0
2017-Nov-16 18:31N 30°05' W 093°20'0 0.1
2017-Nov-16 18:00N 30°05' W 093°20'0 0.1
2017-Nov-16 17:31N 30°05' W 093°20'0 0.7
2017-Nov-16 17:00N 30°05' W 093°20'0 0.0
2017-Nov-16 16:30N 30°05' W 093°20'0 0.6
2017-Nov-16 16:01N 30°05' W 093°20'0 0.0
2017-Nov-16 15:31N 30°05' W 093°20'0 0.0
2017-Nov-16 15:00N 30°05' W 093°20'0 0.0
2017-Nov-16 14:30N 30°05' W 093°20'0 0.0
2017-Nov-16 14:00N 30°05' W 093°20'0 0.0
2017-Nov-16 13:31N 30°05' W 093°20'0 0.6
2017-Nov-16 13:00N 30°05' W 093°20'0 0.0
2017-Nov-16 12:30N 30°05' W 093°20'0 0.0
2017-Nov-16 12:01N 30°05' W 093°20'0 0.0
2017-Nov-16 11:30N 30°05' W 093°20'0 0.0
2017-Nov-16 11:00N 30°05' W 093°20'0 0.0
2017-Nov-16 10:30N 30°05' W 093°20'0 0.0
2017-Nov-16 10:01N 30°05' W 093°20'0 0.0
2017-Nov-16 09:31N 30°05' W 093°20'0 0.0
2017-Nov-16 09:00N 30°05' W 093°20'0 0.0
2017-Nov-16 08:31N 30°05' W 093°20'0 0.0
2017-Nov-16 08:00N 30°05' W 093°20'0 0.0
2017-Nov-16 07:30N 30°05' W 093°20'0 0.0
2017-Nov-16 07:00N 30°05' W 093°20'0 0.0
2017-Nov-16 06:30N 30°05' W 093°20'0 0.0
2017-Nov-16 06:01N 30°05' W 093°20'0 0.0
2017-Nov-16 05:30N 30°05' W 093°20'0 0.0
2017-Nov-16 05:01N 30°05' W 093°20'0 0.0
2017-Nov-16 04:31N 30°05' W 093°20'0 0.0
2017-Nov-16 04:01N 30°05' W 093°20'0 0.0
2017-Nov-16 03:30N 30°05' W 093°20'1 2.7
2017-Nov-16 03:01N 30°06' W 093°19'2 3.1
2017-Nov-16 02:31N 30°05' W 093°20'2 3.0
2017-Nov-16 02:01N 30°06' W 093°19'0 0.1
2017-Nov-16 01:31N 30°06' W 093°19'2 4.0
2017-Nov-16 01:00N 30°05' W 093°20'1 2.5
2017-Nov-16 00:30N 30°04' W 093°21'0 0.3
2017-Nov-16 00:01N 30°04' W 093°21'0 0.0
2017-Nov-15 23:31N 30°04' W 093°21'0 0.5
2017-Nov-15 23:00N 30°04' W 093°22'0 0.6
2017-Nov-15 22:31N 30°04' W 093°21'0 0.0
2017-Nov-15 22:01N 30°04' W 093°21'0 0.0
2017-Nov-15 21:31N 30°04' W 093°21'0 0.0
2017-Nov-15 21:01N 30°04' W 093°21'1 1.2
2017-Nov-15 20:30N 30°04' W 093°21'1 2.6
2017-Nov-15 20:01N 30°05' W 093°20'0 0.0
2017-Nov-15 19:31N 30°05' W 093°20'0 0.0
2017-Nov-15 19:00N 30°05' W 093°20'0 0.0
2017-Nov-15 18:31N 30°05' W 093°20'0 0.0
2017-Nov-15 18:01N 30°05' W 093°20'0 0.0
2017-Nov-15 17:30N 30°05' W 093°20'0 0.0
2017-Nov-15 17:01N 30°05' W 093°20'0 0.0
2017-Nov-15 16:31N 30°05' W 093°20'0 0.0
2017-Nov-15 16:01N 30°05' W 093°20'2 3.6
2017-Nov-15 15:30N 30°05' W 093°18'1 2.1
2017-Nov-15 15:00N 30°05' W 093°17'1 2.2
2017-Nov-15 14:30N 30°05' W 093°18'1 1.5
2017-Nov-15 14:01N 30°06' W 093°18'0 0.0
2017-Nov-15 13:30N 30°06' W 093°18'1 1.2
2017-Nov-15 13:01N 30°06' W 093°19'2 3.1
2017-Nov-15 12:30N 30°05' W 093°20'0 0.0
2017-Nov-15 12:01N 30°05' W 093°20'0 0.6
2017-Nov-15 11:31N 30°05' W 093°20'0 0.7
2017-Nov-15 11:01N 30°04' W 093°20'0 0.0
2017-Nov-15 10:31N 30°04' W 093°20'0 0.0
2017-Nov-15 10:00N 30°04' W 093°20'0 0.0
2017-Nov-15 09:31N 30°04' W 093°20'0 0.0
2017-Nov-15 09:01N 30°04' W 093°20'0 0.0
2017-Nov-15 08:30N 30°04' W 093°20'0 0.0
2017-Nov-15 08:00N 30°04' W 093°20'0 0.0
2017-Nov-15 07:31N 30°04' W 093°20'0 0.1
2017-Nov-15 07:00N 30°04' W 093°20'0 0.0
2017-Nov-15 06:30N 30°04' W 093°20'0 0.0
2017-Nov-15 06:01N 30°04' W 093°20'0 0.0
2017-Nov-15 05:30N 30°04' W 093°20'0 0.0
2017-Nov-15 05:01N 30°04' W 093°20'0 0.0
2017-Nov-15 04:30N 30°04' W 093°20'0 0.0
2017-Nov-15 04:00N 30°04' W 093°20'0 0.0
2017-Nov-15 03:30N 30°04' W 093°20'0 0.0
2017-Nov-15 03:00N 30°04' W 093°20'0 0.0
2017-Nov-15 02:31N 30°04' W 093°20'0 0.0
2017-Nov-15 02:00N 30°04' W 093°20'0 0.0
2017-Nov-15 01:31N 30°04' W 093°20'0 0.0
2017-Nov-15 01:00N 30°04' W 093°20'0 0.0
2017-Nov-15 00:30N 30°04' W 093°20'0 0.0
2017-Nov-15 00:01N 30°04' W 093°20'1 1.4
2017-Nov-14 23:31N 30°05' W 093°20'3 6.9
2017-Nov-14 23:00N 30°08' W 093°20'3 6.4
2017-Nov-14 22:30N 30°11' W 093°18'0 0.2
2017-Nov-14 22:00N 30°11' W 093°18'2 4.2
2017-Nov-14 21:31N 30°10' W 093°19'3 6.1
2017-Nov-14 21:01N 30°07' W 093°20'3 5.1
2017-Nov-14 20:30N 30°04' W 093°21'0 0.0
2017-Nov-14 20:00N 30°04' W 093°21'0 0.7
2017-Nov-14 19:30N 30°04' W 093°20'0 0.0
2017-Nov-14 19:00N 30°04' W 093°20'0 0.0
2017-Nov-14 18:30N 30°04' W 093°20'0 0.0
2017-Nov-14 18:01N 30°04' W 093°20'0 0.0
2017-Nov-14 17:31N 30°04' W 093°20'1 2.2
2017-Nov-14 17:01N 30°04' W 093°21'1 2.8
2017-Nov-14 16:30N 30°05' W 093°20'1 1.2
2017-Nov-14 16:00N 30°05' W 093°20'0 0.0
2017-Nov-14 15:31N 30°05' W 093°20'0 0.0
2017-Nov-14 15:00N 30°05' W 093°20'0 0.0
2017-Nov-14 14:30N 30°05' W 093°20'0 0.0
2017-Nov-14 13:59N 30°05' W 093°20'0 0.0
2017-Nov-14 13:30N 30°05' W 093°20'0 0.0
2017-Nov-14 13:00N 30°05' W 093°20'0 0.6
2017-Nov-14 12:31N 30°05' W 093°20'0 0.0
2017-Nov-14 11:13N 30°05' W 093°20'0 0.0
2017-Nov-14 10:59N 30°05' W 093°20'0 0.0
2017-Nov-14 10:29N 30°05' W 093°20'0 0.0
2017-Nov-14 01:42N 30°05' W 093°20'0 0.0
2017-Nov-14 01:29N 30°05' W 093°20'0 0.0
2017-Nov-14 00:57N 30°05' W 093°20'0 1.0
2017-Nov-14 00:29N 30°05' W 093°20'0 0.1
2017-Nov-13 22:49N 30°05' W 093°20'0 0.2
2017-Nov-13 22:29N 30°05' W 093°20'1 2.0
2017-Nov-13 21:59N 30°04' W 093°20'  

Dump ship's entire track history